sensor_id;sensor_type;location;lat;lon;timestamp;P1;durP1;ratioP1;P2;durP2;ratioP2
71769;SDS011;66386;52.122;5.420;2024-02-15T00:02:22;10.30;;;5.97;;
71769;SDS011;66386;52.122;5.420;2024-02-15T00:04:49;11.05;;;5.07;;
71769;SDS011;66386;52.122;5.420;2024-02-15T00:07:16;13.43;;;5.67;;
71769;SDS011;66386;52.122;5.420;2024-02-15T00:09:43;10.60;;;5.38;;
71769;SDS011;66386;52.122;5.420;2024-02-15T00:12:09;9.30;;;5.03;;
71769;SDS011;66386;52.122;5.420;2024-02-15T00:14:36;12.65;;;5.70;;
71769;SDS011;66386;52.122;5.420;2024-02-15T00:17:04;11.02;;;5.35;;
71769;SDS011;66386;52.122;5.420;2024-02-15T00:19:31;12.60;;;5.07;;
71769;SDS011;66386;52.122;5.420;2024-02-15T00:21:58;11.63;;;5.50;;
71769;SDS011;66386;52.122;5.420;2024-02-15T00:24:24;12.45;;;5.28;;
71769;SDS011;66386;52.122;5.420;2024-02-15T00:26:51;13.50;;;5.30;;
71769;SDS011;66386;52.122;5.420;2024-02-15T00:29:17;14.85;;;5.47;;
71769;SDS011;66386;52.122;5.420;2024-02-15T00:31:44;7.50;;;4.80;;
71769;SDS011;66386;52.122;5.420;2024-02-15T00:34:11;15.30;;;5.18;;
71769;SDS011;66386;52.122;5.420;2024-02-15T00:36:41;9.35;;;4.50;;
71769;SDS011;66386;52.122;5.420;2024-02-15T00:39:09;13.02;;;4.82;;
71769;SDS011;66386;52.122;5.420;2024-02-15T00:41:38;14.63;;;4.90;;
71769;SDS011;66386;52.122;5.420;2024-02-15T00:44:08;9.07;;;4.63;;
71769;SDS011;66386;52.122;5.420;2024-02-15T00:46:37;12.38;;;4.95;;
71769;SDS011;66386;52.122;5.420;2024-02-15T00:49:04;13.98;;;4.93;;
71769;SDS011;66386;52.122;5.420;2024-02-15T00:51:35;10.80;;;4.40;;
71769;SDS011;66386;52.122;5.420;2024-02-15T00:54:02;9.52;;;4.57;;
71769;SDS011;66386;52.122;5.420;2024-02-15T00:56:29;10.63;;;4.73;;
71769;SDS011;66386;52.122;5.420;2024-02-15T00:58:59;8.23;;;4.47;;
71769;SDS011;66386;52.122;5.420;2024-02-15T01:01:29;11.30;;;4.47;;
71769;SDS011;66386;52.122;5.420;2024-02-15T01:03:56;12.77;;;4.38;;
71769;SDS011;66386;52.122;5.420;2024-02-15T01:06:23;13.30;;;4.68;;
71769;SDS011;66386;52.122;5.420;2024-02-15T01:08:50;12.67;;;4.20;;
71769;SDS011;66386;52.122;5.420;2024-02-15T01:11:16;13.50;;;3.95;;
71769;SDS011;66386;52.122;5.420;2024-02-15T01:13:43;7.97;;;4.57;;
71769;SDS011;66386;52.122;5.420;2024-02-15T01:16:11;7.63;;;4.07;;
71769;SDS011;66386;52.122;5.420;2024-02-15T01:18:37;10.60;;;4.13;;
71769;SDS011;66386;52.122;5.420;2024-02-15T01:21:04;10.57;;;4.70;;
71769;SDS011;66386;52.122;5.420;2024-02-15T01:23:31;10.35;;;4.53;;
71769;SDS011;66386;52.122;5.420;2024-02-15T01:25:58;13.07;;;5.25;;
71769;SDS011;66386;52.122;5.420;2024-02-15T01:28:27;14.38;;;6.00;;
71769;SDS011;66386;52.122;5.420;2024-02-15T01:30:54;9.02;;;5.28;;
71769;SDS011;66386;52.122;5.420;2024-02-15T01:33:20;11.73;;;5.83;;
71769;SDS011;66386;52.122;5.420;2024-02-15T01:35:47;13.48;;;6.32;;
71769;SDS011;66386;52.122;5.420;2024-02-15T01:38:14;11.95;;;6.35;;
71769;SDS011;66386;52.122;5.420;2024-02-15T01:40:41;13.40;;;7.20;;
71769;SDS011;66386;52.122;5.420;2024-02-15T01:43:09;9.60;;;7.10;;
71769;SDS011;66386;52.122;5.420;2024-02-15T01:45:35;14.43;;;8.40;;
71769;SDS011;66386;52.122;5.420;2024-02-15T01:48:02;15.73;;;8.80;;
71769;SDS011;66386;52.122;5.420;2024-02-15T01:50:30;19.48;;;8.75;;
71769;SDS011;66386;52.122;5.420;2024-02-15T01:52:59;18.15;;;9.15;;
71769;SDS011;66386;52.122;5.420;2024-02-15T01:55:30;17.70;;;9.43;;
71769;SDS011;66386;52.122;5.420;2024-02-15T01:57:56;20.47;;;8.80;;
71769;SDS011;66386;52.122;5.420;2024-02-15T02:00:24;21.52;;;9.15;;
71769;SDS011;66386;52.122;5.420;2024-02-15T02:02:51;22.65;;;9.63;;
71769;SDS011;66386;52.122;5.420;2024-02-15T02:05:20;20.15;;;9.18;;
71769;SDS011;66386;52.122;5.420;2024-02-15T02:07:46;21.02;;;9.00;;
71769;SDS011;66386;52.122;5.420;2024-02-15T02:10:13;18.10;;;8.73;;
71769;SDS011;66386;52.122;5.420;2024-02-15T02:12:41;17.98;;;8.98;;
71769;SDS011;66386;52.122;5.420;2024-02-15T02:15:08;20.45;;;9.20;;
71769;SDS011;66386;52.122;5.420;2024-02-15T02:17:37;16.90;;;9.43;;
71769;SDS011;66386;52.122;5.420;2024-02-15T02:20:04;19.73;;;8.95;;
71769;SDS011;66386;52.122;5.420;2024-02-15T02:22:35;17.63;;;8.07;;
71769;SDS011;66386;52.122;5.420;2024-02-15T02:25:05;14.45;;;8.45;;
71769;SDS011;66386;52.122;5.420;2024-02-15T02:27:37;18.65;;;8.30;;
71769;SDS011;66386;52.122;5.420;2024-02-15T02:30:13;14.48;;;8.32;;
71769;SDS011;66386;52.122;5.420;2024-02-15T02:32:41;14.02;;;8.73;;
71769;SDS011;66386;52.122;5.420;2024-02-15T02:35:08;16.30;;;7.80;;
71769;SDS011;66386;52.122;5.420;2024-02-15T02:37:38;21.55;;;8.32;;
71769;SDS011;66386;52.122;5.420;2024-02-15T02:40:05;21.08;;;8.93;;
71769;SDS011;66386;52.122;5.420;2024-02-15T02:42:36;13.48;;;7.90;;
71769;SDS011;66386;52.122;5.420;2024-02-15T02:45:12;17.08;;;7.70;;
71769;SDS011;66386;52.122;5.420;2024-02-15T02:47:38;13.20;;;7.53;;
71769;SDS011;66386;52.122;5.420;2024-02-15T02:50:05;17.98;;;7.43;;
71769;SDS011;66386;52.122;5.420;2024-02-15T02:52:32;13.27;;;7.10;;
71769;SDS011;66386;52.122;5.420;2024-02-15T02:54:59;14.50;;;6.93;;
71769;SDS011;66386;52.122;5.420;2024-02-15T02:57:25;17.48;;;6.75;;
71769;SDS011;66386;52.122;5.420;2024-02-15T02:59:52;17.90;;;6.90;;
71769;SDS011;66386;52.122;5.420;2024-02-15T03:02:19;15.70;;;6.80;;
71769;SDS011;66386;52.122;5.420;2024-02-15T03:04:45;20.02;;;7.05;;
71769;SDS011;66386;52.122;5.420;2024-02-15T03:07:12;12.75;;;5.95;;
71769;SDS011;66386;52.122;5.420;2024-02-15T03:09:43;12.25;;;6.90;;
71769;SDS011;66386;52.122;5.420;2024-02-15T03:12:10;14.17;;;6.50;;
71769;SDS011;66386;52.122;5.420;2024-02-15T03:14:36;15.15;;;6.07;;
71769;SDS011;66386;52.122;5.420;2024-02-15T03:17:03;15.18;;;5.78;;
71769;SDS011;66386;52.122;5.420;2024-02-15T03:19:29;11.57;;;6.03;;
71769;SDS011;66386;52.122;5.420;2024-02-15T03:21:57;18.83;;;6.47;;
71769;SDS011;66386;52.122;5.420;2024-02-15T03:24:23;13.07;;;6.20;;
71769;SDS011;66386;52.122;5.420;2024-02-15T03:26:50;17.48;;;6.15;;
71769;SDS011;66386;52.122;5.420;2024-02-15T03:29:18;15.20;;;6.28;;
71769;SDS011;66386;52.122;5.420;2024-02-15T03:31:46;12.18;;;6.28;;
71769;SDS011;66386;52.122;5.420;2024-02-15T03:34:14;11.55;;;5.68;;
71769;SDS011;66386;52.122;5.420;2024-02-15T03:36:42;15.37;;;5.90;;
71769;SDS011;66386;52.122;5.420;2024-02-15T03:39:08;14.55;;;6.13;;
71769;SDS011;66386;52.122;5.420;2024-02-15T03:41:35;13.82;;;5.68;;
71769;SDS011;66386;52.122;5.420;2024-02-15T03:44:01;18.52;;;5.95;;
71769;SDS011;66386;52.122;5.420;2024-02-15T03:46:28;11.73;;;5.55;;
71769;SDS011;66386;52.122;5.420;2024-02-15T03:48:54;11.40;;;5.80;;
71769;SDS011;66386;52.122;5.420;2024-02-15T03:51:23;17.90;;;6.38;;
71769;SDS011;66386;52.122;5.420;2024-02-15T03:53:51;11.52;;;5.20;;
71769;SDS011;66386;52.122;5.420;2024-02-15T03:56:18;13.48;;;5.47;;
71769;SDS011;66386;52.122;5.420;2024-02-15T03:58:47;15.50;;;5.75;;
71769;SDS011;66386;52.122;5.420;2024-02-15T04:01:14;12.10;;;5.30;;
71769;SDS011;66386;52.122;5.420;2024-02-15T04:03:42;12.10;;;5.63;;
71769;SDS011;66386;52.122;5.420;2024-02-15T04:06:08;12.63;;;5.10;;
71769;SDS011;66386;52.122;5.420;2024-02-15T04:08:36;9.32;;;4.90;;
71769;SDS011;66386;52.122;5.420;2024-02-15T04:11:05;11.00;;;5.18;;
71769;SDS011;66386;52.122;5.420;2024-02-15T04:13:33;10.87;;;4.80;;
71769;SDS011;66386;52.122;5.420;2024-02-15T04:16:00;13.02;;;4.97;;
71769;SDS011;66386;52.122;5.420;2024-02-15T04:18:27;16.77;;;4.82;;
71769;SDS011;66386;52.122;5.420;2024-02-15T04:20:59;19.00;;;5.43;;
71769;SDS011;66386;52.122;5.420;2024-02-15T04:23:26;13.00;;;5.50;;
71769;SDS011;66386;52.122;5.420;2024-02-15T04:25:52;16.20;;;4.57;;
71769;SDS011;66386;52.122;5.420;2024-02-15T04:28:20;13.43;;;4.72;;
71769;SDS011;66386;52.122;5.420;2024-02-15T04:30:47;12.88;;;4.93;;
71769;SDS011;66386;52.122;5.420;2024-02-15T04:33:15;14.63;;;5.25;;
71769;SDS011;66386;52.122;5.420;2024-02-15T04:35:42;12.02;;;4.70;;
71769;SDS011;66386;52.122;5.420;2024-02-15T04:38:09;15.40;;;4.20;;
71769;SDS011;66386;52.122;5.420;2024-02-15T04:40:36;12.48;;;4.55;;
71769;SDS011;66386;52.122;5.420;2024-02-15T04:43:04;14.65;;;4.25;;
71769;SDS011;66386;52.122;5.420;2024-02-15T04:45:31;17.58;;;4.25;;
71769;SDS011;66386;52.122;5.420;2024-02-15T04:47:58;16.95;;;4.00;;
71769;SDS011;66386;52.122;5.420;2024-02-15T04:50:28;17.43;;;3.93;;
71769;SDS011;66386;52.122;5.420;2024-02-15T04:52:55;11.80;;;3.63;;
71769;SDS011;66386;52.122;5.420;2024-02-15T04:55:22;15.00;;;4.30;;
71769;SDS011;66386;52.122;5.420;2024-02-15T04:57:49;12.02;;;4.32;;
71769;SDS011;66386;52.122;5.420;2024-02-15T05:00:21;15.65;;;4.25;;
71769;SDS011;66386;52.122;5.420;2024-02-15T05:02:49;15.93;;;4.63;;
71769;SDS011;66386;52.122;5.420;2024-02-15T05:05:16;17.40;;;4.65;;
71769;SDS011;66386;52.122;5.420;2024-02-15T05:07:43;9.38;;;3.90;;
71769;SDS011;66386;52.122;5.420;2024-02-15T05:10:10;12.25;;;4.18;;
71769;SDS011;66386;52.122;5.420;2024-02-15T05:12:39;11.88;;;4.40;;
71769;SDS011;66386;52.122;5.420;2024-02-15T05:15:09;11.93;;;4.67;;
71769;SDS011;66386;52.122;5.420;2024-02-15T05:17:38;11.38;;;4.78;;
71769;SDS011;66386;52.122;5.420;2024-02-15T05:20:09;11.18;;;4.30;;
71769;SDS011;66386;52.122;5.420;2024-02-15T05:22:38;11.50;;;5.15;;
71769;SDS011;66386;52.122;5.420;2024-02-15T05:25:06;10.25;;;4.32;;
71769;SDS011;66386;52.122;5.420;2024-02-15T05:27:34;7.73;;;4.33;;
71769;SDS011;66386;52.122;5.420;2024-02-15T05:30:02;12.25;;;4.95;;
71769;SDS011;66386;52.122;5.420;2024-02-15T05:32:36;10.70;;;4.40;;
71769;SDS011;66386;52.122;5.420;2024-02-15T05:35:08;10.98;;;4.53;;
71769;SDS011;66386;52.122;5.420;2024-02-15T05:37:36;12.18;;;4.50;;
71769;SDS011;66386;52.122;5.420;2024-02-15T05:40:03;9.23;;;4.73;;
71769;SDS011;66386;52.122;5.420;2024-02-15T05:42:30;13.77;;;5.20;;
71769;SDS011;66386;52.122;5.420;2024-02-15T05:45:14;9.73;;;4.70;;
71769;SDS011;66386;52.122;5.420;2024-02-15T05:48:00;10.40;;;4.68;;
71769;SDS011;66386;52.122;5.420;2024-02-15T05:50:27;12.18;;;4.80;;
71769;SDS011;66386;52.122;5.420;2024-02-15T05:52:55;10.57;;;4.83;;
71769;SDS011;66386;52.122;5.420;2024-02-15T05:55:24;9.45;;;4.70;;
71769;SDS011;66386;52.122;5.420;2024-02-15T05:57:52;9.05;;;5.00;;
71769;SDS011;66386;52.122;5.420;2024-02-15T06:00:19;8.07;;;4.55;;
71769;SDS011;66386;52.122;5.420;2024-02-15T06:02:48;9.90;;;4.20;;
71769;SDS011;66386;52.122;5.420;2024-02-15T06:05:16;10.93;;;5.00;;
71769;SDS011;66386;52.122;5.420;2024-02-15T06:07:43;7.75;;;4.60;;
71769;SDS011;66386;52.122;5.420;2024-02-15T06:10:10;8.70;;;4.47;;
71769;SDS011;66386;52.122;5.420;2024-02-15T06:12:37;10.32;;;4.50;;
71769;SDS011;66386;52.122;5.420;2024-02-15T06:15:04;12.00;;;4.50;;
71769;SDS011;66386;52.122;5.420;2024-02-15T06:17:41;12.73;;;5.13;;
71769;SDS011;66386;52.122;5.420;2024-02-15T06:20:13;13.75;;;4.55;;
71769;SDS011;66386;52.122;5.420;2024-02-15T06:22:40;11.50;;;5.30;;
71769;SDS011;66386;52.122;5.420;2024-02-15T06:25:07;9.68;;;4.97;;
71769;SDS011;66386;52.122;5.420;2024-02-15T06:27:34;13.65;;;4.95;;
71769;SDS011;66386;52.122;5.420;2024-02-15T06:30:02;9.30;;;4.70;;
71769;SDS011;66386;52.122;5.420;2024-02-15T06:32:48;12.20;;;5.95;;
71769;SDS011;66386;52.122;5.420;2024-02-15T06:35:44;9.48;;;5.05;;
71769;SDS011;66386;52.122;5.420;2024-02-15T06:38:29;10.23;;;5.03;;
71769;SDS011;66386;52.122;5.420;2024-02-15T06:41:14;10.68;;;5.47;;
71769;SDS011;66386;52.122;5.420;2024-02-15T06:43:40;9.57;;;5.63;;
71769;SDS011;66386;52.122;5.420;2024-02-15T06:46:07;8.73;;;5.03;;
71769;SDS011;66386;52.122;5.420;2024-02-15T06:48:36;11.85;;;5.50;;
71769;SDS011;66386;52.122;5.420;2024-02-15T06:51:03;14.85;;;5.32;;
71769;SDS011;66386;52.122;5.420;2024-02-15T06:53:30;11.45;;;5.53;;
71769;SDS011;66386;52.122;5.420;2024-02-15T06:55:56;12.20;;;5.63;;
71769;SDS011;66386;52.122;5.420;2024-02-15T06:58:23;11.77;;;5.55;;
71769;SDS011;66386;52.122;5.420;2024-02-15T07:00:49;10.80;;;5.25;;
71769;SDS011;66386;52.122;5.420;2024-02-15T07:03:16;9.85;;;5.30;;
71769;SDS011;66386;52.122;5.420;2024-02-15T07:05:43;11.00;;;5.55;;
71769;SDS011;66386;52.122;5.420;2024-02-15T07:08:10;11.33;;;5.67;;
71769;SDS011;66386;52.122;5.420;2024-02-15T07:10:37;9.65;;;5.60;;
71769;SDS011;66386;52.122;5.420;2024-02-15T07:13:05;12.90;;;5.95;;
71769;SDS011;66386;52.122;5.420;2024-02-15T07:15:36;8.55;;;5.70;;
71769;SDS011;66386;52.122;5.420;2024-02-15T07:18:07;10.18;;;5.05;;
71769;SDS011;66386;52.122;5.420;2024-02-15T07:20:34;8.07;;;5.07;;
71769;SDS011;66386;52.122;5.420;2024-02-15T07:23:01;9.35;;;4.93;;
71769;SDS011;66386;52.122;5.420;2024-02-15T07:25:27;10.65;;;5.15;;
71769;SDS011;66386;52.122;5.420;2024-02-15T07:27:54;6.60;;;5.00;;
71769;SDS011;66386;52.122;5.420;2024-02-15T07:30:20;8.63;;;5.13;;
71769;SDS011;66386;52.122;5.420;2024-02-15T07:32:51;9.53;;;4.93;;
71769;SDS011;66386;52.122;5.420;2024-02-15T07:35:18;9.40;;;4.80;;
71769;SDS011;66386;52.122;5.420;2024-02-15T07:37:52;10.80;;;4.93;;
71769;SDS011;66386;52.122;5.420;2024-02-15T07:40:21;8.00;;;4.78;;
71769;SDS011;66386;52.122;5.420;2024-02-15T07:42:48;7.47;;;4.55;;
71769;SDS011;66386;52.122;5.420;2024-02-15T07:45:15;6.83;;;4.50;;
71769;SDS011;66386;52.122;5.420;2024-02-15T07:47:44;7.60;;;3.95;;
71769;SDS011;66386;52.122;5.420;2024-02-15T07:50:14;7.38;;;3.72;;
71769;SDS011;66386;52.122;5.420;2024-02-15T07:52:46;10.27;;;3.85;;
71769;SDS011;66386;52.122;5.420;2024-02-15T07:55:14;5.80;;;3.42;;
71769;SDS011;66386;52.122;5.420;2024-02-15T07:57:40;3.83;;;3.43;;
71769;SDS011;66386;52.122;5.420;2024-02-15T08:00:07;4.95;;;3.53;;
71769;SDS011;66386;52.122;5.420;2024-02-15T08:02:38;4.10;;;3.15;;
71769;SDS011;66386;52.122;5.420;2024-02-15T08:05:07;3.78;;;3.28;;
71769;SDS011;66386;52.122;5.420;2024-02-15T08:07:45;5.50;;;3.20;;
71769;SDS011;66386;52.122;5.420;2024-02-15T08:10:14;3.77;;;2.80;;
71769;SDS011;66386;52.122;5.420;2024-02-15T08:12:44;3.90;;;2.63;;
71769;SDS011;66386;52.122;5.420;2024-02-15T08:15:11;6.15;;;2.58;;
71769;SDS011;66386;52.122;5.420;2024-02-15T08:20:07;6.13;;;2.90;;
71769;SDS011;66386;52.122;5.420;2024-02-15T08:22:39;5.23;;;2.53;;
71769;SDS011;66386;52.122;5.420;2024-02-15T08:25:15;3.72;;;2.65;;
71769;SDS011;66386;52.122;5.420;2024-02-15T08:27:46;4.55;;;2.83;;
71769;SDS011;66386;52.122;5.420;2024-02-15T08:30:16;3.95;;;2.88;;
71769;SDS011;66386;52.122;5.420;2024-02-15T08:32:45;7.70;;;2.90;;
71769;SDS011;66386;52.122;5.420;2024-02-15T08:35:14;5.83;;;2.70;;
71769;SDS011;66386;52.122;5.420;2024-02-15T08:37:41;5.68;;;2.30;;
71769;SDS011;66386;52.122;5.420;2024-02-15T08:40:25;5.25;;;1.90;;
71769;SDS011;66386;52.122;5.420;2024-02-15T08:42:52;2.38;;;1.38;;
71769;SDS011;66386;52.122;5.420;2024-02-15T08:45:19;3.58;;;1.30;;
71769;SDS011;66386;52.122;5.420;2024-02-15T08:47:47;2.73;;;1.30;;
71769;SDS011;66386;52.122;5.420;2024-02-15T08:50:16;2.20;;;1.42;;
71769;SDS011;66386;52.122;5.420;2024-02-15T08:52:43;2.35;;;1.30;;
71769;SDS011;66386;52.122;5.420;2024-02-15T08:55:10;2.28;;;1.25;;
71769;SDS011;66386;52.122;5.420;2024-02-15T08:57:41;2.03;;;1.30;;
71769;SDS011;66386;52.122;5.420;2024-02-15T09:00:08;2.57;;;1.47;;
71769;SDS011;66386;52.122;5.420;2024-02-15T09:02:40;2.58;;;1.27;;
71769;SDS011;66386;52.122;5.420;2024-02-15T09:05:07;2.95;;;1.40;;
71769;SDS011;66386;52.122;5.420;2024-02-15T09:07:33;2.78;;;1.10;;
71769;SDS011;66386;52.122;5.420;2024-02-15T09:10:00;3.55;;;1.15;;
71769;SDS011;66386;52.122;5.420;2024-02-15T09:12:27;3.67;;;1.43;;
71769;SDS011;66386;52.122;5.420;2024-02-15T09:14:53;2.63;;;0.93;;
71769;SDS011;66386;52.122;5.420;2024-02-15T09:17:20;3.40;;;1.20;;
71769;SDS011;66386;52.122;5.420;2024-02-15T09:19:47;4.15;;;1.05;;
71769;SDS011;66386;52.122;5.420;2024-02-15T09:22:15;6.50;;;1.10;;
71769;SDS011;66386;52.122;5.420;2024-02-15T09:24:42;5.00;;;1.40;;
71769;SDS011;66386;52.122;5.420;2024-02-15T09:27:09;2.97;;;1.02;;
71769;SDS011;66386;52.122;5.420;2024-02-15T09:29:38;2.63;;;1.10;;
71769;SDS011;66386;52.122;5.420;2024-02-15T09:32:08;5.30;;;1.30;;
71769;SDS011;66386;52.122;5.420;2024-02-15T09:34:35;3.97;;;1.48;;
71769;SDS011;66386;52.122;5.420;2024-02-15T09:37:02;2.37;;;1.27;;
71769;SDS011;66386;52.122;5.420;2024-02-15T09:39:29;2.63;;;1.40;;
71769;SDS011;66386;52.122;5.420;2024-02-15T09:41:55;5.68;;;1.38;;
71769;SDS011;66386;52.122;5.420;2024-02-15T09:44:25;3.28;;;1.55;;
71769;SDS011;66386;52.122;5.420;2024-02-15T09:47:03;5.10;;;1.50;;
71769;SDS011;66386;52.122;5.420;2024-02-15T09:49:35;2.23;;;1.57;;
71769;SDS011;66386;52.122;5.420;2024-02-15T09:52:03;8.32;;;1.65;;
71769;SDS011;66386;52.122;5.420;2024-02-15T09:54:30;6.68;;;1.42;;
71769;SDS011;66386;52.122;5.420;2024-02-15T09:57:00;3.00;;;1.73;;
71769;SDS011;66386;52.122;5.420;2024-02-15T09:59:28;3.72;;;1.52;;
71769;SDS011;66386;52.122;5.420;2024-02-15T10:01:57;6.93;;;2.13;;
71769;SDS011;66386;52.122;5.420;2024-02-15T10:04:25;4.85;;;1.60;;
71769;SDS011;66386;52.122;5.420;2024-02-15T10:06:51;4.55;;;1.90;;
71769;SDS011;66386;52.122;5.420;2024-02-15T10:09:25;8.65;;;1.83;;
71769;SDS011;66386;52.122;5.420;2024-02-15T10:14:50;2.53;;;1.80;;
71769;SDS011;66386;52.122;5.420;2024-02-15T10:17:18;6.45;;;1.80;;
71769;SDS011;66386;52.122;5.420;2024-02-15T10:19:50;6.68;;;2.20;;
71769;SDS011;66386;52.122;5.420;2024-02-15T10:22:29;5.60;;;1.95;;
71769;SDS011;66386;52.122;5.420;2024-02-15T10:25:11;6.00;;;1.75;;
71769;SDS011;66386;52.122;5.420;2024-02-15T10:27:39;9.03;;;1.83;;
71769;SDS011;66386;52.122;5.420;2024-02-15T10:30:16;5.20;;;1.88;;
71769;SDS011;66386;52.122;5.420;2024-02-15T10:32:47;7.60;;;1.70;;
71769;SDS011;66386;52.122;5.420;2024-02-15T10:35:21;4.47;;;1.83;;
71769;SDS011;66386;52.122;5.420;2024-02-15T10:37:48;5.22;;;2.22;;
71769;SDS011;66386;52.122;5.420;2024-02-15T10:40:19;7.03;;;1.93;;
71769;SDS011;66386;52.122;5.420;2024-02-15T10:42:47;3.92;;;2.22;;
71769;SDS011;66386;52.122;5.420;2024-02-15T10:45:15;6.00;;;2.10;;
71769;SDS011;66386;52.122;5.420;2024-02-15T10:47:44;6.75;;;2.05;;
71769;SDS011;66386;52.122;5.420;2024-02-15T10:50:14;6.18;;;2.08;;
71769;SDS011;66386;52.122;5.420;2024-02-15T10:53:00;4.67;;;2.00;;
71769;SDS011;66386;52.122;5.420;2024-02-15T10:58:39;9.95;;;2.08;;
71769;SDS011;66386;52.122;5.420;2024-02-15T11:01:13;3.70;;;2.00;;
71769;SDS011;66386;52.122;5.420;2024-02-15T11:03:50;6.28;;;2.20;;
71769;SDS011;66386;52.122;5.420;2024-02-15T11:06:22;5.97;;;2.60;;
71769;SDS011;66386;52.122;5.420;2024-02-15T11:08:53;5.30;;;2.80;;
71769;SDS011;66386;52.122;5.420;2024-02-15T11:11:20;5.43;;;2.75;;
71769;SDS011;66386;52.122;5.420;2024-02-15T11:13:47;9.65;;;2.90;;
71769;SDS011;66386;52.122;5.420;2024-02-15T11:19:10;6.07;;;2.70;;
71769;SDS011;66386;52.122;5.420;2024-02-15T11:24:31;4.70;;;2.83;;
71769;SDS011;66386;52.122;5.420;2024-02-15T11:26:59;7.20;;;2.90;;
71769;SDS011;66386;52.122;5.420;2024-02-15T11:29:49;6.07;;;2.60;;
71769;SDS011;66386;52.122;5.420;2024-02-15T11:32:35;4.73;;;2.90;;
71769;SDS011;66386;52.122;5.420;2024-02-15T11:35:07;4.25;;;3.20;;
71769;SDS011;66386;52.122;5.420;2024-02-15T11:41:03;9.63;;;3.80;;
71769;SDS011;66386;52.122;5.420;2024-02-15T11:43:42;6.72;;;3.63;;
71769;SDS011;66386;52.122;5.420;2024-02-15T11:46:14;7.97;;;3.40;;
71769;SDS011;66386;52.122;5.420;2024-02-15T11:48:48;6.72;;;3.88;;
71769;SDS011;66386;52.122;5.420;2024-02-15T11:51:28;5.80;;;3.60;;
71769;SDS011;66386;52.122;5.420;2024-02-15T11:54:02;5.55;;;3.63;;
71769;SDS011;66386;52.122;5.420;2024-02-15T11:56:33;5.57;;;3.53;;
71769;SDS011;66386;52.122;5.420;2024-02-15T11:59:18;8.13;;;3.33;;
71769;SDS011;66386;52.122;5.420;2024-02-15T12:01:56;6.95;;;3.70;;
71769;SDS011;66386;52.122;5.420;2024-02-15T12:04:41;5.78;;;3.28;;
71769;SDS011;66386;52.122;5.420;2024-02-15T12:07:44;8.63;;;3.70;;
71769;SDS011;66386;52.122;5.420;2024-02-15T12:10:29;5.90;;;3.47;;
71769;SDS011;66386;52.122;5.420;2024-02-15T12:13:17;6.13;;;3.50;;
71769;SDS011;66386;52.122;5.420;2024-02-15T12:16:02;6.38;;;3.22;;
71769;SDS011;66386;52.122;5.420;2024-02-15T12:18:48;5.68;;;3.75;;
71769;SDS011;66386;52.122;5.420;2024-02-15T12:21:21;5.18;;;3.72;;
71769;SDS011;66386;52.122;5.420;2024-02-15T12:23:51;5.35;;;3.78;;
71769;SDS011;66386;52.122;5.420;2024-02-15T12:26:19;7.20;;;4.03;;
71769;SDS011;66386;52.122;5.420;2024-02-15T12:28:52;6.78;;;3.88;;
71769;SDS011;66386;52.122;5.420;2024-02-15T12:31:24;6.38;;;4.10;;
71769;SDS011;66386;52.122;5.420;2024-02-15T12:34:00;7.40;;;2.80;;
71769;SDS011;66386;52.122;5.420;2024-02-15T12:36:34;7.20;;;3.45;;
71769;SDS011;66386;52.122;5.420;2024-02-15T12:39:03;6.93;;;3.63;;
71769;SDS011;66386;52.122;5.420;2024-02-15T12:41:40;6.00;;;3.47;;
71769;SDS011;66386;52.122;5.420;2024-02-15T12:44:08;7.22;;;3.65;;
71769;SDS011;66386;52.122;5.420;2024-02-15T12:46:36;5.95;;;3.05;;
71769;SDS011;66386;52.122;5.420;2024-02-15T12:49:09;4.07;;;3.17;;
71769;SDS011;66386;52.122;5.420;2024-02-15T12:51:53;6.00;;;3.10;;
71769;SDS011;66386;52.122;5.420;2024-02-15T12:54:40;3.53;;;2.70;;
71769;SDS011;66386;52.122;5.420;2024-02-15T12:57:08;5.47;;;2.75;;
71769;SDS011;66386;52.122;5.420;2024-02-15T12:59:43;4.05;;;2.78;;
71769;SDS011;66386;52.122;5.420;2024-02-15T13:02:10;5.40;;;2.70;;
71769;SDS011;66386;52.122;5.420;2024-02-15T13:04:36;5.27;;;2.37;;
71769;SDS011;66386;52.122;5.420;2024-02-15T13:07:04;5.70;;;2.33;;
71769;SDS011;66386;52.122;5.420;2024-02-15T13:09:33;5.28;;;2.35;;
71769;SDS011;66386;52.122;5.420;2024-02-15T13:12:00;4.38;;;2.50;;
71769;SDS011;66386;52.122;5.420;2024-02-15T13:14:26;4.75;;;2.10;;
71769;SDS011;66386;52.122;5.420;2024-02-15T13:16:55;4.73;;;1.70;;
71769;SDS011;66386;52.122;5.420;2024-02-15T13:19:22;6.47;;;1.90;;
71769;SDS011;66386;52.122;5.420;2024-02-15T13:21:49;6.75;;;1.77;;
71769;SDS011;66386;52.122;5.420;2024-02-15T13:24:19;3.10;;;1.63;;
71769;SDS011;66386;52.122;5.420;2024-02-15T13:26:47;3.75;;;1.45;;
71769;SDS011;66386;52.122;5.420;2024-02-15T13:29:14;2.90;;;1.40;;
71769;SDS011;66386;52.122;5.420;2024-02-15T13:31:41;3.20;;;1.50;;
71769;SDS011;66386;52.122;5.420;2024-02-15T13:34:09;3.42;;;1.73;;
71769;SDS011;66386;52.122;5.420;2024-02-15T13:36:36;4.32;;;1.45;;
71769;SDS011;66386;52.122;5.420;2024-02-15T13:39:02;3.15;;;1.33;;
71769;SDS011;66386;52.122;5.420;2024-02-15T13:41:31;3.67;;;1.40;;
71769;SDS011;66386;52.122;5.420;2024-02-15T13:43:57;3.20;;;1.30;;
71769;SDS011;66386;52.122;5.420;2024-02-15T13:46:25;3.60;;;1.60;;
71769;SDS011;66386;52.122;5.420;2024-02-15T13:48:51;4.13;;;1.52;;
71769;SDS011;66386;52.122;5.420;2024-02-15T13:51:18;6.55;;;1.42;;
71769;SDS011;66386;52.122;5.420;2024-02-15T13:53:45;4.37;;;1.40;;
71769;SDS011;66386;52.122;5.420;2024-02-15T13:56:13;4.85;;;1.50;;
71769;SDS011;66386;52.122;5.420;2024-02-15T13:58:42;6.43;;;1.50;;
71769;SDS011;66386;52.122;5.420;2024-02-15T14:01:09;2.50;;;1.42;;
71769;SDS011;66386;52.122;5.420;2024-02-15T14:03:40;2.08;;;1.27;;
71769;SDS011;66386;52.122;5.420;2024-02-15T14:06:07;3.13;;;1.20;;
71769;SDS011;66386;52.122;5.420;2024-02-15T14:08:34;4.88;;;1.67;;
71769;SDS011;66386;52.122;5.420;2024-02-15T14:11:01;4.05;;;1.48;;
71769;SDS011;66386;52.122;5.420;2024-02-15T14:13:28;4.38;;;1.42;;
71769;SDS011;66386;52.122;5.420;2024-02-15T14:15:56;4.43;;;1.85;;
71769;SDS011;66386;52.122;5.420;2024-02-15T14:18:25;4.83;;;2.23;;
71769;SDS011;66386;52.122;5.420;2024-02-15T14:20:51;4.88;;;1.95;;
71769;SDS011;66386;52.122;5.420;2024-02-15T14:23:18;3.42;;;1.85;;
71769;SDS011;66386;52.122;5.420;2024-02-15T14:25:44;5.90;;;2.38;;
71769;SDS011;66386;52.122;5.420;2024-02-15T14:28:12;4.82;;;2.22;;
71769;SDS011;66386;52.122;5.420;2024-02-15T14:30:40;9.23;;;2.07;;
71769;SDS011;66386;52.122;5.420;2024-02-15T14:33:25;6.85;;;1.98;;
71769;SDS011;66386;52.122;5.420;2024-02-15T14:35:59;3.45;;;1.80;;
71769;SDS011;66386;52.122;5.420;2024-02-15T14:38:27;3.67;;;1.92;;
71769;SDS011;66386;52.122;5.420;2024-02-15T14:40:54;3.90;;;1.88;;
71769;SDS011;66386;52.122;5.420;2024-02-15T14:43:24;2.67;;;2.00;;
71769;SDS011;66386;52.122;5.420;2024-02-15T14:45:53;3.97;;;1.90;;
71769;SDS011;66386;52.122;5.420;2024-02-15T14:48:22;5.35;;;1.95;;
71769;SDS011;66386;52.122;5.420;2024-02-15T14:50:50;4.20;;;1.60;;
71769;SDS011;66386;52.122;5.420;2024-02-15T14:53:18;3.28;;;1.33;;
71769;SDS011;66386;52.122;5.420;2024-02-15T14:55:45;7.23;;;1.77;;
71769;SDS011;66386;52.122;5.420;2024-02-15T14:58:16;4.50;;;2.20;;
71769;SDS011;66386;52.122;5.420;2024-02-15T15:00:44;5.05;;;1.50;;
71769;SDS011;66386;52.122;5.420;2024-02-15T15:03:12;4.07;;;1.35;;
71769;SDS011;66386;52.122;5.420;2024-02-15T15:05:40;2.53;;;1.40;;
71769;SDS011;66386;52.122;5.420;2024-02-15T15:08:25;3.47;;;1.80;;
71769;SDS011;66386;52.122;5.420;2024-02-15T15:11:11;4.65;;;1.73;;
71769;SDS011;66386;52.122;5.420;2024-02-15T15:13:56;3.42;;;1.80;;
71769;SDS011;66386;52.122;5.420;2024-02-15T15:16:24;5.75;;;1.63;;